Time;durP1;ratioP1;P1;durP2;ratioP2;P2;SDS_P1;SDS_P2;PMS_P1;PMS_P2;Temp;Humidity;BMP_temperature;BMP_pressure;BME280_temperature;BME280_humidity;BME280_pressure;Samples;Min_cycle;Max_cycle;Signal;HPM_P1;HPM_P2
2021/03/01 00:00:17;;;;;;;95.17;38.33;;;;;;;;;;5052560;28;20222;-86
2021/03/01 00:02:42;;;;;;;44.43;24.07;;;;;;;;;;5052260;28;20188;-83
2021/03/01 00:05:08;;;;;;;44.83;24.87;;;;;;;;;;5052751;28;20229;-83
2021/03/01 00:07:34;;;;;;;47.87;24.77;;;;;;;;;;5052557;28;20171;-83
2021/03/01 00:10:00;;;;;;;42.77;22.53;;;;;;;;;;5052653;28;20691;-83
2021/03/01 00:12:25;;;;;;;37.80;21.70;;;;;;;;;;5054170;28;20203;-83
2021/03/01 00:14:50;;;;;;;30.97;20.50;;;;;;;;;;5054546;28;20291;-84
2021/03/01 00:17:16;;;;;;;32.03;20.00;;;;;;;;;;5054793;28;20564;-86
2021/03/01 00:19:41;;;;;;;38.13;23.07;;;;;;;;;;5054549;28;20433;-86
2021/03/01 00:22:06;;;;;;;30.53;20.17;;;;;;;;;;5054522;28;20199;-86
2021/03/01 00:24:32;;;;;;;33.87;20.60;;;;;;;;;;5054268;28;20222;-86
2021/03/01 00:26:57;;;;;;;35.03;21.27;;;;;;;;;;5055256;28;20176;-86
2021/03/01 00:29:22;;;;;;;27.27;19.67;;;;;;;;;;5054365;28;20262;-86
2021/03/01 00:31:48;;;;;;;29.23;19.30;;;;;;;;;;5054315;28;20164;-86
2021/03/01 00:34:13;;;;;;;27.73;19.20;;;;;;;;;;5054508;28;20646;-86
2021/03/01 00:36:38;;;;;;;30.77;20.73;;;;;;;;;;5054408;28;20565;-86
2021/03/01 00:39:04;;;;;;;30.70;19.87;;;;;;;;;;5053945;28;20309;-86
2021/03/01 00:41:29;;;;;;;26.23;18.50;;;;;;;;;;5052914;28;20662;-85
2021/03/01 00:43:54;;;;;;;28.47;19.63;;;;;;;;;;5053796;28;20171;-85
2021/03/01 00:46:20;;;;;;;29.03;19.43;;;;;;;;;;5054144;28;20254;-85
2021/03/01 00:48:45;;;;;;;28.67;19.43;;;;;;;;;;5054021;28;20206;-85
2021/03/01 00:51:11;;;;;;;27.73;19.53;;;;;;;;;;5054442;28;20509;-86
2021/03/01 00:53:36;;;;;;;29.83;19.67;;;;;;;;;;5054011;28;20528;-86
2021/03/01 00:56:01;;;;;;;37.13;22.70;;;;;;;;;;5053619;28;20209;-86
2021/03/01 00:58:26;;;;;;;36.50;22.90;;;;;;;;;;5054024;28;20175;-86
2021/03/01 01:00:52;;;;;;;33.57;21.40;;;;;;;;;;5053431;28;20311;-86
2021/03/01 01:03:18;;;;;;;32.60;20.63;;;;;;;;;;5054246;28;20610;-86
2021/03/01 01:05:44;;;;;;;27.03;20.00;;;;;;;;;;5053558;28;20184;-85
2021/03/01 01:08:09;;;;;;;29.30;20.37;;;;;;;;;;5054072;28;20164;-86
2021/03/01 01:10:35;;;;;;;27.10;19.13;;;;;;;;;;5053616;28;20178;-86
2021/03/01 01:13:01;;;;;;;27.97;20.00;;;;;;;;;;5053838;28;20168;-86
2021/03/01 01:15:27;;;;;;;31.53;20.60;;;;;;;;;;5054103;28;20199;-86
2021/03/01 01:17:52;;;;;;;27.40;20.50;;;;;;;;;;5053983;28;20176;-86
2021/03/01 01:20:18;;;;;;;29.80;19.93;;;;;;;;;;5053128;28;20203;-86
2021/03/01 01:22:43;;;;;;;28.20;19.97;;;;;;;;;;5054042;28;20253;-86
2021/03/01 01:25:10;;;;;;;32.47;20.60;;;;;;;;;;5052553;28;20183;-86
2021/03/01 01:27:35;;;;;;;28.93;20.10;;;;;;;;;;5052344;28;20579;-85
2021/03/01 01:30:00;;;;;;;28.37;19.53;;;;;;;;;;5053363;28;20168;-85
2021/03/01 01:32:27;;;;;;;27.60;19.93;;;;;;;;;;5053209;28;20179;-86
2021/03/01 01:34:52;;;;;;;30.50;20.17;;;;;;;;;;5053492;28;20196;-86
2021/03/01 01:37:18;;;;;;;28.50;19.37;;;;;;;;;;5053615;28;20168;-85
2021/03/01 01:39:43;;;;;;;29.77;19.63;;;;;;;;;;5053786;28;20298;-85
2021/03/01 01:42:08;;;;;;;28.40;20.80;;;;;;;;;;5053287;28;20167;-85
2021/03/01 01:44:34;;;;;;;31.60;20.87;;;;;;;;;;5053212;28;20168;-85
2021/03/01 01:46:59;;;;;;;28.60;20.63;;;;;;;;;;5053745;28;20163;-85
2021/03/01 01:49:24;;;;;;;28.80;19.67;;;;;;;;;;5053466;28;20168;-86
2021/03/01 01:51:50;;;;;;;30.87;20.50;;;;;;;;;;5053969;28;20563;-86
2021/03/01 01:54:15;;;;;;;32.43;21.10;;;;;;;;;;5053010;28;20255;-86
2021/03/01 01:56:40;;;;;;;28.50;20.90;;;;;;;;;;5052554;28;20203;-86
2021/03/01 01:59:06;;;;;;;29.30;20.17;;;;;;;;;;5053097;28;20256;-86
2021/03/01 02:01:31;;;;;;;29.63;20.23;;;;;;;;;;5053159;28;20653;-86
2021/03/01 02:04:01;;;;;;;32.17;20.57;;;;;;;;;;5052997;28;20183;-86
2021/03/01 02:06:38;;;;;;;29.83;20.70;;;;;;;;;;5053312;28;20215;-86
2021/03/01 02:09:14;;;;;;;30.83;20.70;;;;;;;;;;5053227;28;20168;-86
2021/03/01 02:11:48;;;;;;;29.97;21.07;;;;;;;;;;5056793;28;20305;-86
2021/03/01 02:14:32;;;;;;;36.17;22.63;;;;;;;;;;5057243;28;20159;-86
2021/03/01 02:16:57;;;;;;;36.97;22.67;;;;;;;;;;5068229;28;20186;-85
2021/03/01 02:19:24;;;;;;;32.60;22.23;;;;;;;;;;5076786;28;20171;-85
2021/03/01 02:21:49;;;;;;;31.40;21.10;;;;;;;;;;5076719;28;20167;-86
2021/03/01 02:24:31;;;;;;;35.40;21.70;;;;;;;;;;5076236;28;20177;-86
2021/03/01 02:26:57;;;;;;;35.80;24.93;;;;;;;;;;5077257;28;20176;-86
2021/03/01 02:29:23;;;;;;;37.50;26.60;;;;;;;;;;5075176;28;20167;-86
2021/03/01 02:31:49;;;;;;;34.83;24.77;;;;;;;;;;5056335;28;20622;-86
2021/03/01 02:34:16;;;;;;;55.43;29.10;;;;;;;;;;5056494;28;20275;-88
2021/03/01 02:36:44;;;;;;;42.60;25.27;;;;;;;;;;5056263;28;20199;-88
2021/03/01 02:39:09;;;;;;;35.40;21.63;;;;;;;;;;5056332;28;20581;-87
2021/03/01 02:41:35;;;;;;;35.57;21.73;;;;;;;;;;5056494;28;20164;-87
2021/03/01 02:44:01;;;;;;;32.60;20.97;;;;;;;;;;5056399;28;20164;-88
2021/03/01 02:46:27;;;;;;;30.17;20.97;;;;;;;;;;5056370;28;20206;-86
2021/03/01 02:48:53;;;;;;;30.80;21.17;;;;;;;;;;5056608;28;20247;-86
2021/03/01 02:51:20;;;;;;;29.77;19.83;;;;;;;;;;5054991;28;20615;-85
2021/03/01 02:53:45;;;;;;;30.13;20.07;;;;;;;;;;5056439;28;20168;-85
2021/03/01 02:56:14;;;;;;;26.57;18.73;;;;;;;;;;5056058;28;20199;-85
2021/03/01 02:58:40;;;;;;;27.17;18.83;;;;;;;;;;5056052;28;20175;-85
2021/03/01 03:01:06;;;;;;;25.90;18.60;;;;;;;;;;5055776;28;20583;-85
2021/03/01 03:03:32;;;;;;;29.00;19.20;;;;;;;;;;5056050;28;20618;-85
2021/03/01 03:05:57;;;;;;;29.90;19.07;;;;;;;;;;5056213;28;20203;-85
2021/03/01 03:08:23;;;;;;;31.43;19.90;;;;;;;;;;5055989;28;20171;-85
2021/03/01 03:10:49;;;;;;;30.50;20.37;;;;;;;;;;5055891;28;20251;-85
2021/03/01 03:13:15;;;;;;;27.33;19.10;;;;;;;;;;5056206;28;20200;-85
2021/03/01 03:15:42;;;;;;;27.17;19.10;;;;;;;;;;5055085;28;20235;-85
2021/03/01 03:18:08;;;;;;;27.33;18.47;;;;;;;;;;5056200;28;20635;-85
2021/03/01 03:20:33;;;;;;;27.63;18.07;;;;;;;;;;5055271;28;20178;-85
2021/03/01 03:23:00;;;;;;;23.97;17.30;;;;;;;;;;5055937;28;20263;-85
2021/03/01 03:25:25;;;;;;;29.37;17.70;;;;;;;;;;5056110;28;20183;-86
2021/03/01 03:27:50;;;;;;;27.07;18.67;;;;;;;;;;5055334;28;20531;-86
2021/03/01 03:30:18;;;;;;;28.40;19.07;;;;;;;;;;5055257;28;20199;-86
2021/03/01 03:32:43;;;;;;;56.10;36.00;;;;;;;;;;5055107;28;20203;-86
2021/03/01 03:35:10;;;;;;;36.93;21.53;;;;;;;;;;5055176;28;20554;-86
2021/03/01 03:37:43;;;;;;;33.33;22.37;;;;;;;;;;5055429;28;20211;-86
2021/03/01 03:40:10;;;;;;;26.40;18.43;;;;;;;;;;5055613;28;20323;-86
2021/03/01 03:42:36;;;;;;;32.40;21.93;;;;;;;;;;5055011;28;20619;-86
2021/03/01 03:45:03;;;;;;;29.10;18.93;;;;;;;;;;5055204;28;20266;-86
2021/03/01 03:47:29;;;;;;;54.73;34.87;;;;;;;;;;5055472;28;20184;-85
2021/03/01 03:49:55;;;;;;;43.23;29.77;;;;;;;;;;5055204;28;20175;-86
2021/03/01 03:52:22;;;;;;;38.03;24.57;;;;;;;;;;5054685;28;20598;-86
2021/03/01 03:54:49;;;;;;;36.70;23.90;;;;;;;;;;5055321;28;20195;-86
2021/03/01 03:57:17;;;;;;;29.70;19.57;;;;;;;;;;5055538;28;20188;-85
2021/03/01 03:59:42;;;;;;;31.37;19.80;;;;;;;;;;5055321;28;20255;-86
2021/03/01 04:02:09;;;;;;;27.07;18.13;;;;;;;;;;5054994;28;20660;-86
2021/03/01 04:04:35;;;;;;;33.13;20.73;;;;;;;;;;5054906;28;20176;-86
2021/03/01 04:07:02;;;;;;;34.73;21.17;;;;;;;;;;5054825;28;20171;-86
2021/03/01 04:09:27;;;;;;;37.50;24.70;;;;;;;;;;5054580;28;20557;-86
2021/03/01 04:11:54;;;;;;;33.50;22.07;;;;;;;;;;5054858;28;20234;-86
2021/03/01 04:14:21;;;;;;;32.17;20.67;;;;;;;;;;5054312;28;20199;-86
2021/03/01 04:16:54;;;;;;;37.70;22.70;;;;;;;;;;5054562;28;20214;-86
2021/03/01 04:19:21;;;;;;;44.53;28.10;;;;;;;;;;5054532;28;20172;-86
2021/03/01 04:21:46;;;;;;;36.47;22.07;;;;;;;;;;5054549;28;20175;-86
2021/03/01 04:24:14;;;;;;;35.60;22.30;;;;;;;;;;5054282;28;20167;-86
2021/03/01 04:26:40;;;;;;;32.80;22.07;;;;;;;;;;5054485;28;20630;-86
2021/03/01 04:29:05;;;;;;;30.53;19.90;;;;;;;;;;5054508;28;20190;-85
2021/03/01 04:31:31;;;;;;;31.23;19.63;;;;;;;;;;5054715;28;20175;-85
2021/03/01 04:33:57;;;;;;;32.57;20.30;;;;;;;;;;5054114;28;20197;-85
2021/03/01 04:36:24;;;;;;;31.50;19.80;;;;;;;;;;5054504;28;20231;-85
2021/03/01 04:38:49;;;;;;;32.27;19.77;;;;;;;;;;5054302;28;20179;-85
2021/03/01 04:41:16;;;;;;;28.07;18.97;;;;;;;;;;5054243;28;20168;-85
2021/03/01 04:43:41;;;;;;;31.10;17.70;;;;;;;;;;5053969;28;20627;-85
2021/03/01 04:46:07;;;;;;;29.40;17.47;;;;;;;;;;5052964;28;20179;-86
2021/03/01 04:48:34;;;;;;;29.60;18.37;;;;;;;;;;5054524;28;20168;-86
2021/03/01 04:51:00;;;;;;;30.13;18.60;;;;;;;;;;5054422;28;20263;-85
2021/03/01 04:53:27;;;;;;;30.63;18.83;;;;;;;;;;5054357;28;20199;-85
2021/03/01 04:55:52;;;;;;;27.57;17.53;;;;;;;;;;5053621;28;20202;-85
2021/03/01 04:58:18;;;;;;;30.40;18.63;;;;;;;;;;5052660;28;20178;-85
2021/03/01 05:00:45;;;;;;;29.50;17.67;;;;;;;;;;5053490;28;20220;-86
2021/03/01 05:03:10;;;;;;;31.60;18.23;;;;;;;;;;5053889;28;20183;-86
2021/03/01 05:05:36;;;;;;;29.37;18.77;;;;;;;;;;5053971;28;20175;-86
2021/03/01 05:08:07;;;;;;;28.77;17.97;;;;;;;;;;5053822;28;20163;-86
2021/03/01 05:10:33;;;;;;;27.50;16.90;;;;;;;;;;5054055;28;20176;-86
2021/03/01 05:12:58;;;;;;;30.33;18.03;;;;;;;;;;5053502;28;20172;-86
2021/03/01 05:15:24;;;;;;;26.53;16.77;;;;;;;;;;5053400;28;20199;-86
2021/03/01 05:17:49;;;;;;;27.13;16.60;;;;;;;;;;5054310;28;20674;-86
2021/03/01 05:20:14;;;;;;;33.60;20.57;;;;;;;;;;5054005;28;20167;-86
2021/03/01 05:22:40;;;;;;;34.20;19.33;;;;;;;;;;5053671;28;20264;-86
2021/03/01 05:25:06;;;;;;;32.70;18.83;;;;;;;;;;5053451;28;20183;-86
2021/03/01 05:27:33;;;;;;;31.27;18.70;;;;;;;;;;5053592;28;20267;-86
2021/03/01 05:29:58;;;;;;;30.33;18.57;;;;;;;;;;5053350;28;20627;-86
2021/03/01 05:32:24;;;;;;;33.37;19.53;;;;;;;;;;5053536;28;20168;-86
2021/03/01 05:34:50;;;;;;;31.83;19.23;;;;;;;;;;5053736;28;20584;-86
2021/03/01 05:37:15;;;;;;;32.37;19.00;;;;;;;;;;5052327;28;20578;-86
2021/03/01 05:39:40;;;;;;;31.57;20.80;;;;;;;;;;5052267;28;20179;-86
2021/03/01 05:42:06;;;;;;;34.63;20.63;;;;;;;;;;5053857;28;20168;-87
2021/03/01 05:44:32;;;;;;;35.20;20.97;;;;;;;;;;5055346;28;20172;-86
2021/03/01 05:46:59;;;;;;;34.13;21.07;;;;;;;;;;5057616;28;20172;-86
2021/03/01 05:49:24;;;;;;;34.30;21.47;;;;;;;;;;5057265;28;20245;-86
2021/03/01 05:51:51;;;;;;;30.70;19.00;;;;;;;;;;5056128;28;20622;-86
2021/03/01 05:54:19;;;;;;;33.57;19.47;;;;;;;;;;5057345;28;20168;-86
2021/03/01 05:56:45;;;;;;;31.87;18.10;;;;;;;;;;5057543;28;20206;-86
2021/03/01 05:59:11;;;;;;;27.57;17.40;;;;;;;;;;5057173;28;20176;-86
2021/03/01 06:01:37;;;;;;;30.13;17.67;;;;;;;;;;5057320;28;20251;-86
2021/03/01 06:04:04;;;;;;;28.83;17.13;;;;;;;;;;5057482;28;20172;-86
2021/03/01 06:06:29;;;;;;;27.80;17.70;;;;;;;;;;5057706;28;20183;-86
2021/03/01 06:08:55;;;;;;;26.90;16.83;;;;;;;;;;5057656;28;20172;-86
2021/03/01 06:11:20;;;;;;;26.03;15.80;;;;;;;;;;5056996;28;20194;-86
2021/03/01 06:13:45;;;;;;;32.40;20.37;;;;;;;;;;5056695;28;20526;-86
2021/03/01 06:16:11;;;;;;;29.13;18.20;;;;;;;;;;5057196;28;20202;-86
2021/03/01 06:18:43;;;;;;;26.17;15.60;;;;;;;;;;5055585;28;20191;-86
2021/03/01 06:21:15;;;;;;;24.83;15.10;;;;;;;;;;5056588;28;20569;-86
2021/03/01 06:23:41;;;;;;;25.50;16.33;;;;;;;;;;5057045;28;20179;-86
2021/03/01 06:26:25;;;;;;;25.93;16.13;;;;;;;;;;5055481;28;20575;-86
2021/03/01 06:28:53;;;;;;;22.93;15.23;;;;;;;;;;5057211;28;20175;-86
2021/03/01 06:31:38;;;;;;;27.00;15.43;;;;;;;;;;5056921;28;20225;-86
2021/03/01 06:34:25;;;;;;;23.77;15.27;;;;;;;;;;5056793;28;20223;-86
2021/03/01 06:36:53;;;;;;;25.57;17.10;;;;;;;;;;5056655;28;20555;-86
2021/03/01 06:39:45;;;;;;;24.87;15.13;;;;;;;;;;5055198;28;20204;-86
2021/03/01 06:42:17;;;;;;;25.97;17.33;;;;;;;;;;5054273;28;20212;-87
2021/03/01 06:44:43;;;;;;;24.43;16.73;;;;;;;;;;5055935;28;20526;-87
2021/03/01 06:47:08;;;;;;;27.13;15.73;;;;;;;;;;5056278;28;20171;-87
2021/03/01 06:49:37;;;;;;;35.30;18.80;;;;;;;;;;5056336;28;20196;-86
2021/03/01 06:52:02;;;;;;;40.77;20.60;;;;;;;;;;5056263;28;20176;-86
2021/03/01 06:54:28;;;;;;;40.97;20.37;;;;;;;;;;5055965;28;20179;-86
2021/03/01 06:56:53;;;;;;;26.97;15.27;;;;;;;;;;5054946;28;20208;-86
2021/03/01 06:59:23;;;;;;;22.07;13.13;;;;;;;;;;5056385;28;20183;-86
2021/03/01 07:01:50;;;;;;;24.77;14.63;;;;;;;;;;5056631;28;20156;-85
2021/03/01 07:04:28;;;;;;;29.07;16.67;;;;;;;;;;5052517;28;20172;-85
2021/03/01 07:06:55;;;;;;;23.87;14.70;;;;;;;;;;5055728;28;20179;-86
2021/03/01 07:09:24;;;;;;;22.03;14.50;;;;;;;;;;5056136;28;20516;-85
2021/03/01 07:11:50;;;;;;;22.80;13.43;;;;;;;;;;5056163;28;20172;-85
2021/03/01 07:14:16;;;;;;;21.37;13.13;;;;;;;;;;5055552;28;20641;-85
2021/03/01 07:16:43;;;;;;;20.77;13.20;;;;;;;;;;5055482;28;20650;-85
2021/03/01 07:19:16;;;;;;;21.33;13.60;;;;;;;;;;5055767;28;20179;-86
2021/03/01 07:21:42;;;;;;;24.20;14.60;;;;;;;;;;5054422;28;20172;-86
2021/03/01 07:24:08;;;;;;;20.00;13.53;;;;;;;;;;5055661;28;20175;-86
2021/03/01 07:26:34;;;;;;;22.73;14.53;;;;;;;;;;5055724;28;20176;-86
2021/03/01 07:29:02;;;;;;;19.43;12.53;;;;;;;;;;5055796;28;20230;-86
2021/03/01 07:31:28;;;;;;;27.63;15.63;;;;;;;;;;5055541;28;20293;-86
2021/03/01 07:33:54;;;;;;;23.73;13.57;;;;;;;;;;5052535;28;20212;-86
2021/03/01 07:36:19;;;;;;;20.77;13.20;;;;;;;;;;5054207;28;20529;-86
2021/03/01 07:38:45;;;;;;;20.43;13.67;;;;;;;;;;5055407;28;20194;-86
2021/03/01 07:41:10;;;;;;;24.80;14.83;;;;;;;;;;5055052;28;20292;-86
2021/03/01 07:43:38;;;;;;;24.20;15.63;;;;;;;;;;5054049;28;20233;-86
2021/03/01 07:46:04;;;;;;;21.70;14.03;;;;;;;;;;5054951;28;20540;-87
2021/03/01 07:48:40;;;;;;;26.60;18.47;;;;;;;;;;5055462;28;20176;-86
2021/03/01 07:51:05;;;;;;;17.77;12.10;;;;;;;;;;5055466;28;20171;-87
2021/03/01 07:53:49;;;;;;;20.37;12.60;;;;;;;;;;5054826;28;20589;-87
2021/03/01 07:56:23;;;;;;;19.67;13.00;;;;;;;;;;5054691;28;20203;-87
2021/03/01 07:58:59;;;;;;;30.37;18.53;;;;;;;;;;5054350;28;20479;-86
2021/03/01 08:01:24;;;;;;;87.57;45.23;;;;;;;;;;5056025;28;20231;-86
2021/03/01 08:03:50;;;;;;;25.47;15.63;;;;;;;;;;5054583;28;20171;-85
2021/03/01 08:06:15;;;;;;;28.43;17.03;;;;;;;;;;5055154;28;20563;-86
2021/03/01 08:08:41;;;;;;;179.77;91.93;;;;;;;;;;5054855;28;20171;-86
2021/03/01 08:11:07;;;;;;;99.70;40.40;;;;;;;;;;5054989;28;20175;-86
2021/03/01 08:13:32;;;;;;;26.67;15.47;;;;;;;;;;5054740;28;20172;-86
2021/03/01 08:16:17;;;;;;;23.67;13.40;;;;;;;;;;5054367;28;20200;-86
2021/03/01 08:18:52;;;;;;;21.43;14.03;;;;;;;;;;5053879;28;20202;-86
2021/03/01 08:21:18;;;;;;;28.40;16.23;;;;;;;;;;5053279;28;20172;-86
2021/03/01 08:23:43;;;;;;;34.57;17.40;;;;;;;;;;5054792;28;20233;-86
2021/03/01 08:26:09;;;;;;;26.80;15.43;;;;;;;;;;5038129;28;20180;-86
2021/03/01 08:28:35;;;;;;;24.90;15.50;;;;;;;;;;5033043;28;20176;-85
2021/03/01 08:31:07;;;;;;;22.00;15.07;;;;;;;;;;5032457;28;20173;-86
2021/03/01 08:33:32;;;;;;;28.57;17.83;;;;;;;;;;5032346;28;20196;-86
2021/03/01 08:36:00;;;;;;;31.40;17.23;;;;;;;;;;5032477;28;20206;-86
2021/03/01 08:38:41;;;;;;;47.07;19.43;;;;;;;;;;5032176;28;20271;-86
2021/03/01 08:41:09;;;;;;;29.13;16.17;;;;;;;;;;5035491;28;20217;-86
2021/03/01 08:43:35;;;;;;;35.97;20.10;;;;;;;;;;5035926;28;20271;-86
2021/03/01 08:46:01;;;;;;;35.67;20.30;;;;;;;;;;5033995;28;20177;-86
2021/03/01 08:48:26;;;;;;;44.33;22.57;;;;;;;;;;5033917;28;20234;-86
2021/03/01 08:50:53;;;;;;;53.93;38.30;;;;;;;;;;5032913;28;20238;-86
2021/03/01 08:53:28;;;;;;;21.27;14.53;;;;;;;;;;5034369;28;20176;-87
2021/03/01 08:55:55;;;;;;;19.57;12.93;;;;;;;;;;5033960;28;20203;-87
2021/03/01 08:58:36;;;;;;;23.73;15.10;;;;;;;;;;5034051;28;20266;-87
2021/03/01 09:01:03;;;;;;;22.27;14.83;;;;;;;;;;5035932;28;20228;-87
2021/03/01 09:03:32;;;;;;;21.03;13.53;;;;;;;;;;5042031;28;20277;-86
2021/03/01 09:06:08;;;;;;;21.73;14.40;;;;;;;;;;5033681;28;20295;-86
2021/03/01 09:08:33;;;;;;;36.30;20.50;;;;;;;;;;5032621;28;20176;-86
2021/03/01 09:11:00;;;;;;;34.60;20.27;;;;;;;;;;5033884;28;20283;-86
2021/03/01 09:13:29;;;;;;;98.73;54.80;;;;;;;;;;5033873;28;20623;-87
2021/03/01 09:15:54;;;;;;;46.47;27.20;;;;;;;;;;5034261;28;20204;-86
2021/03/01 09:18:20;;;;;;;54.17;30.73;;;;;;;;;;5032842;28;20518;-86
2021/03/01 09:20:47;;;;;;;48.53;26.53;;;;;;;;;;5032296;28;20169;-86
2021/03/01 09:23:13;;;;;;;22.13;14.03;;;;;;;;;;5033482;28;20253;-87
2021/03/01 09:25:38;;;;;;;19.17;13.03;;;;;;;;;;5033843;28;20207;-86
2021/03/01 09:28:05;;;;;;;21.67;13.47;;;;;;;;;;5043614;28;20250;-86
2021/03/01 09:30:30;;;;;;;20.07;13.77;;;;;;;;;;5042036;28;20175;-86
2021/03/01 09:32:57;;;;;;;27.23;15.00;;;;;;;;;;5043002;28;20238;-86
2021/03/01 09:35:23;;;;;;;28.30;17.27;;;;;;;;;;5041102;28;20204;-86
2021/03/01 09:37:48;;;;;;;23.20;15.80;;;;;;;;;;5040084;28;20194;-87
2021/03/01 09:40:20;;;;;;;20.53;14.10;;;;;;;;;;5044290;28;20569;-87
2021/03/01 09:42:49;;;;;;;85.00;48.93;;;;;;;;;;5042629;28;20180;-87
2021/03/01 09:45:15;;;;;;;51.50;28.93;;;;;;;;;;5042399;28;20230;-87
2021/03/01 09:47:41;;;;;;;21.07;13.07;;;;;;;;;;5039497;28;20179;-87
2021/03/01 09:50:07;;;;;;;20.53;13.60;;;;;;;;;;5043953;28;20537;-87
2021/03/01 09:52:32;;;;;;;35.80;25.30;;;;;;;;;;5033473;28;20184;-86
2021/03/01 09:54:58;;;;;;;68.70;41.43;;;;;;;;;;5032105;28;20200;-85
2021/03/01 09:57:28;;;;;;;34.40;20.73;;;;;;;;;;5040451;28;20646;-85
2021/03/01 09:59:53;;;;;;;56.20;35.37;;;;;;;;;;5051330;28;20227;-84
2021/03/01 10:02:20;;;;;;;49.60;34.13;;;;;;;;;;5053978;28;20621;-84
2021/03/01 10:04:46;;;;;;;33.83;21.73;;;;;;;;;;5052938;28;20529;-84
2021/03/01 10:07:18;;;;;;;25.40;16.20;;;;;;;;;;5052956;28;20172;-84
2021/03/01 10:09:45;;;;;;;23.23;14.90;;;;;;;;;;5053189;28;20518;-85
2021/03/01 10:12:10;;;;;;;23.10;15.50;;;;;;;;;;5052110;28;20180;-84
2021/03/01 10:14:36;;;;;;;26.33;16.10;;;;;;;;;;5051764;28;20178;-84
2021/03/01 10:17:34;;;;;;;34.30;20.83;;;;;;;;;;5051251;28;20242;-84
2021/03/01 10:20:17;;;;;;;73.70;40.30;;;;;;;;;;5027771;28;20207;-84
2021/03/01 10:23:01;;;;;;;40.47;24.23;;;;;;;;;;5051431;28;20175;-84
2021/03/01 10:25:36;;;;;;;28.67;17.83;;;;;;;;;;5051235;28;20180;-84
2021/03/01 10:28:04;;;;;;;24.00;15.67;;;;;;;;;;5051241;28;20245;-84
2021/03/01 10:30:29;;;;;;;27.13;16.67;;;;;;;;;;5051322;28;20176;-84
2021/03/01 10:33:07;;;;;;;25.97;15.60;;;;;;;;;;5056492;28;20583;-84
2021/03/01 10:35:33;;;;;;;28.03;17.63;;;;;;;;;;5056503;28;20231;-84
2021/03/01 10:38:06;;;;;;;27.07;17.80;;;;;;;;;;5056280;28;20176;-83
2021/03/01 10:40:31;;;;;;;22.97;15.57;;;;;;;;;;5056442;28;20182;-84
2021/03/01 10:42:57;;;;;;;25.13;16.73;;;;;;;;;;5056953;28;20251;-84
2021/03/01 10:45:23;;;;;;;19.73;13.90;;;;;;;;;;5056219;28;20179;-84
2021/03/01 10:47:59;;;;;;;21.13;14.50;;;;;;;;;;5056320;28;20175;-84
2021/03/01 10:50:24;;;;;;;23.77;14.43;;;;;;;;;;5055628;28;20175;-84
2021/03/01 10:52:50;;;;;;;45.80;27.17;;;;;;;;;;5053792;28;20180;-84
2021/03/01 10:55:16;;;;;;;32.30;21.03;;;;;;;;;;5055792;28;20601;-84
2021/03/01 10:57:41;;;;;;;28.93;18.40;;;;;;;;;;5056432;28;20182;-85
2021/03/01 11:00:07;;;;;;;24.30;16.73;;;;;;;;;;5056176;28;20219;-85
2021/03/01 11:02:32;;;;;;;25.30;15.70;;;;;;;;;;5055745;28;20180;-85
2021/03/01 11:04:58;;;;;;;26.90;17.13;;;;;;;;;;5054635;28;20646;-84
2021/03/01 11:07:25;;;;;;;27.67;17.50;;;;;;;;;;5054090;28;20180;-85
2021/03/01 11:09:54;;;;;;;27.10;16.80;;;;;;;;;;5055585;28;20301;-84
2021/03/01 11:12:19;;;;;;;42.80;35.00;;;;;;;;;;5055937;28;20168;-85
2021/03/01 11:14:45;;;;;;;29.60;20.03;;;;;;;;;;5053859;28;20180;-85
2021/03/01 11:17:11;;;;;;;55.40;38.10;;;;;;;;;;5055411;28;20172;-85
2021/03/01 11:19:37;;;;;;;59.93;37.83;;;;;;;;;;5053691;28;20172;-85
2021/03/01 11:22:02;;;;;;;27.10;18.67;;;;;;;;;;5053473;28;20709;-85
2021/03/01 11:24:28;;;;;;;28.63;19.20;;;;;;;;;;5053685;28;20553;-85
2021/03/01 11:26:53;;;;;;;27.83;17.80;;;;;;;;;;5054998;28;20199;-85
2021/03/01 11:29:19;;;;;;;31.63;20.57;;;;;;;;;;5052990;28;20258;-85
2021/03/01 11:31:45;;;;;;;46.70;30.23;;;;;;;;;;5054969;28;20631;-85
2021/03/01 11:34:10;;;;;;;29.53;19.10;;;;;;;;;;5054870;28;20183;-85
2021/03/01 11:36:36;;;;;;;41.13;25.23;;;;;;;;;;5055441;28;20188;-86
2021/03/01 11:39:02;;;;;;;41.90;26.53;;;;;;;;;;5055322;28;20176;-85
2021/03/01 11:41:28;;;;;;;34.00;22.13;;;;;;;;;;5054700;28;20258;-85
2021/03/01 11:43:53;;;;;;;34.57;21.67;;;;;;;;;;5054814;28;20243;-86
2021/03/01 11:46:19;;;;;;;36.13;22.73;;;;;;;;;;5053662;28;20175;-86
2021/03/01 11:48:45;;;;;;;35.43;21.63;;;;;;;;;;5055377;28;20221;-86
2021/03/01 11:51:11;;;;;;;29.40;18.47;;;;;;;;;;5055129;28;20259;-85
2021/03/01 11:53:36;;;;;;;36.47;21.30;;;;;;;;;;5054021;28;20175;-85
2021/03/01 11:56:02;;;;;;;40.60;21.50;;;;;;;;;;5054676;28;20653;-85
2021/03/01 11:58:27;;;;;;;135.33;73.10;;;;;;;;;;5047048;28;20213;-84
2021/03/01 12:00:52;;;;;;;46.73;26.93;;;;;;;;;;5054796;28;20238;-85
2021/03/01 12:03:18;;;;;;;36.20;23.20;;;;;;;;;;5053198;28;20182;-85
2021/03/01 12:05:43;;;;;;;36.43;23.03;;;;;;;;;;5054281;28;20207;-86
2021/03/01 12:08:09;;;;;;;36.60;20.97;;;;;;;;;;5054847;28;20172;-85
2021/03/01 12:10:35;;;;;;;42.03;24.03;;;;;;;;;;5054655;28;20538;-85
2021/03/01 12:13:00;;;;;;;38.47;23.57;;;;;;;;;;5054979;28;20667;-84
2021/03/01 12:15:26;;;;;;;40.93;24.17;;;;;;;;;;5054495;28;20286;-86
2021/03/01 12:17:51;;;;;;;39.53;25.13;;;;;;;;;;5054183;28;20684;-85
2021/03/01 12:20:16;;;;;;;40.13;23.97;;;;;;;;;;5053967;28;20589;-85
2021/03/01 12:22:42;;;;;;;37.57;23.70;;;;;;;;;;5053990;28;20229;-85
2021/03/01 12:25:09;;;;;;;46.73;32.10;;;;;;;;;;5038238;28;20196;-85
2021/03/01 12:27:34;;;;;;;46.57;30.33;;;;;;;;;;5034090;28;20532;-84
2021/03/01 12:29:59;;;;;;;45.27;26.40;;;;;;;;;;5034679;28;20638;-84
2021/03/01 12:32:25;;;;;;;41.07;26.20;;;;;;;;;;5034394;28;20569;-85
2021/03/01 12:34:50;;;;;;;33.93;22.90;;;;;;;;;;5032886;28;20220;-85
2021/03/01 12:37:15;;;;;;;72.97;38.77;;;;;;;;;;5034271;28;20173;-84
2021/03/01 12:39:41;;;;;;;42.03;24.80;;;;;;;;;;5034303;28;20161;-84
2021/03/01 12:42:07;;;;;;;42.77;23.80;;;;;;;;;;5034234;28;20171;-85
2021/03/01 12:44:32;;;;;;;41.23;25.70;;;;;;;;;;5034311;28;20242;-84
2021/03/01 12:46:58;;;;;;;41.03;24.03;;;;;;;;;;5032993;28;20211;-85
2021/03/01 12:49:23;;;;;;;40.13;23.63;;;;;;;;;;5032849;28;20168;-84
2021/03/01 12:51:49;;;;;;;69.90;36.97;;;;;;;;;;5034167;28;20195;-85
2021/03/01 12:54:14;;;;;;;246.47;100.30;;;;;;;;;;5049054;28;20217;-84
2021/03/01 12:56:40;;;;;;;76.83;37.33;;;;;;;;;;5050987;28;20739;-85
2021/03/01 12:59:05;;;;;;;45.43;26.53;;;;;;;;;;5049519;28;20623;-85
2021/03/01 13:01:31;;;;;;;41.47;23.93;;;;;;;;;;5053635;28;20190;-84
2021/03/01 13:03:57;;;;;;;40.97;24.13;;;;;;;;;;5052596;28;20668;-84
2021/03/01 13:06:22;;;;;;;44.17;25.40;;;;;;;;;;5053658;28;20270;-84
2021/03/01 13:08:47;;;;;;;33.77;21.07;;;;;;;;;;5053856;28;20168;-84
2021/03/01 13:11:13;;;;;;;34.17;21.67;;;;;;;;;;5053904;28;20199;-84
2021/03/01 13:13:38;;;;;;;77.67;37.73;;;;;;;;;;5053756;28;20211;-83
2021/03/01 13:16:03;;;;;;;49.23;29.07;;;;;;;;;;5052639;28;20310;-85
2021/03/01 13:18:29;;;;;;;36.87;21.67;;;;;;;;;;5048690;28;20271;-84
2021/03/01 13:20:55;;;;;;;32.70;20.13;;;;;;;;;;5033704;28;20637;-84
2021/03/01 13:23:20;;;;;;;36.77;23.47;;;;;;;;;;5043763;28;20255;-84
2021/03/01 13:25:46;;;;;;;41.27;23.37;;;;;;;;;;5034476;28;20275;-84
2021/03/01 13:28:11;;;;;;;33.40;21.17;;;;;;;;;;5033519;28;20618;-84
2021/03/01 13:30:36;;;;;;;30.83;21.40;;;;;;;;;;5033758;28;20175;-85
2021/03/01 13:33:01;;;;;;;30.43;19.63;;;;;;;;;;5033488;28;20278;-85
2021/03/01 13:35:27;;;;;;;26.73;17.73;;;;;;;;;;5033237;28;20689;-84
2021/03/01 13:37:52;;;;;;;30.07;18.80;;;;;;;;;;5033261;28;20607;-84
2021/03/01 13:40:17;;;;;;;31.53;19.37;;;;;;;;;;5033803;28;20674;-84
2021/03/01 13:42:43;;;;;;;33.77;19.97;;;;;;;;;;5033510;28;20171;-84
2021/03/01 13:45:10;;;;;;;30.37;19.37;;;;;;;;;;5033593;28;20222;-84
2021/03/01 13:47:35;;;;;;;28.10;18.17;;;;;;;;;;5041839;28;20176;-84
2021/03/01 13:50:01;;;;;;;26.27;17.37;;;;;;;;;;5053118;28;20183;-83
2021/03/01 13:52:27;;;;;;;29.73;19.80;;;;;;;;;;5053709;28;20176;-83
2021/03/01 13:54:52;;;;;;;28.20;17.33;;;;;;;;;;5052937;28;20275;-83
2021/03/01 13:57:17;;;;;;;31.20;19.27;;;;;;;;;;5053199;28;20313;-84
2021/03/01 13:59:42;;;;;;;32.40;18.97;;;;;;;;;;5053092;28;20318;-84
2021/03/01 14:02:08;;;;;;;26.77;17.33;;;;;;;;;;5053230;28;20267;-84
2021/03/01 14:04:33;;;;;;;34.37;22.17;;;;;;;;;;5053327;28;20168;-85
2021/03/01 14:06:58;;;;;;;88.30;40.63;;;;;;;;;;5057052;28;20178;-84
2021/03/01 14:09:24;;;;;;;45.60;25.67;;;;;;;;;;5057059;28;20171;-84
2021/03/01 14:11:49;;;;;;;48.93;26.23;;;;;;;;;;5056664;28;20247;-84
2021/03/01 14:14:14;;;;;;;41.53;25.10;;;;;;;;;;5056338;28;20195;-84